Melody — V7OM3 — position and weather

sailwx.info

Track history (hours):
 
Tides and Currents Weather Stations Pressure Air Temp Water Temp Dewpoint Dewpoint Depression Visibility Wind Speed Wind Dir Waves Ship Positions

Melody

Last reported at 2018-Jul-20 23:31 UTC. Time now 2018-Jul-20 23:36 UTC.
Position N 43°44' E 013°49'.

Length 183 m; draft 7.2 m.

Type: Tanker. MMSI: 538003113.

Date/timePositionNaut miles runAvg speedWind from/ knotsBaromVisibWave heightAir tempDewpointWater temp
2018-Jul-20 23:31N 43°44' E 013°49'812.6
2018-Jul-20 22:53N 43°41' E 013°59'513.2
2018-Jul-20 22:28N 43°37' E 014°04'713.5
2018-Jul-20 21:56N 43°33' E 014°12'613.1
2018-Jul-20 21:31N 43°31' E 014°20'713.3
2018-Jul-20 20:58N 43°29' E 014°29'443 9.7
2018-Jul-18 23:28N 36°07' E 015°03'613.1
2018-Jul-18 22:58N 36°04' E 014°56'713.0
2018-Jul-18 22:24N 36°00' E 014°48'612.3
2018-Jul-18 21:54N 35°54' E 014°47'1 1.8
2018-Jul-18 21:28N 35°53' E 014°46'0 0.0
2018-Jul-18 20:26N 35°53' E 014°46'0 0.0
2018-Jul-18 17:25N 35°53' E 014°47'0 0.0
2018-Jul-18 16:52N 35°53' E 014°47'0 0.0
2018-Jul-18 16:28N 35°53' E 014°47'0 0.0
2018-Jul-18 15:59N 35°53' E 014°47'0 0.0
2018-Jul-18 15:29N 35°53' E 014°47'0 0.0
2018-Jul-18 14:59N 35°53' E 014°47'0 0.0
2018-Jul-18 14:30N 35°53' E 014°47'0 0.0
2018-Jul-18 13:30N 35°53' E 014°47'0 0.0
2018-Jul-18 12:58N 35°53' E 014°47'0 0.2
2018-Jul-18 12:28N 35°54' E 014°47'1 2.7
2018-Jul-18 12:00N 35°53' E 014°48'2 3.8
2018-Jul-18 11:28N 35°51' E 014°48'10 9.8
2018-Jul-18 10:28N 35°49' E 014°36'0 0.2
2018-Jul-18 09:58N 35°49' E 014°36'0 0.0
2018-Jul-18 09:29N 35°49' E 014°36'0 0.0
2018-Jul-18 08:59N 35°49' E 014°36'0 0.0
2018-Jul-18 04:23N 35°49' E 014°36'0 0.0
2018-Jul-18 00:46N 35°49' E 014°36'0 0.0
2018-Jul-18 00:23N 35°49' E 014°36'0 0.0
2018-Jul-17 23:59N 35°49' E 014°36'0 0.0
2018-Jul-17 23:29N 35°49' E 014°36'0 0.0
2018-Jul-17 23:00N 35°49' E 014°36'0 0.0
2018-Jul-17 22:18N 35°49' E 014°36'0 0.0
2018-Jul-17 21:57N 35°49' E 014°36'3 0.2
2018-Jul-17 08:45N 35°49' E 014°33'0 0.0
2018-Jul-17 07:46N 35°49' E 014°33'0 0.0
2018-Jul-17 06:50N 35°49' E 014°33'0 0.0
2018-Jul-17 06:23N 35°49' E 014°33'0 0.0
2018-Jul-17 05:56N 35°49' E 014°33'0 0.0
2018-Jul-17 05:30N 35°49' E 014°33'0 0.0
2018-Jul-17 05:00N 35°49' E 014°33'0 0.0
2018-Jul-17 04:30N 35°49' E 014°33'0 0.0
2018-Jul-17 00:09N 35°49' E 014°33'0 0.0
2018-Jul-16 23:25N 35°49' E 014°33'0 0.0
2018-Jul-16 21:56N 35°49' E 014°33'0 0.0
2018-Jul-16 13:19N 35°49' E 014°33'0 0.0
2018-Jul-16 12:58N 35°49' E 014°33'0 0.0
2018-Jul-16 12:23N 35°49' E 014°33'0 0.0
2018-Jul-16 09:34N 35°49' E 014°33'0 0.0
2018-Jul-16 09:28N 35°49' E 014°33'0 0.0
2018-Jul-16 08:58N 35°49' E 014°33'  
Track history (hours):
 
Tides and Currents Weather Stations Pressure Air Temp Water Temp Dewpoint Dewpoint Depression Visibility Wind Speed Wind Dir Waves Ship Positions

Melody

Last reported at 2018-Jul-20 23:31 UTC. Time now 2018-Jul-20 23:36 UTC.
Position N 43°44' E 013°49'.

Length 183 m; draft 7.2 m.

Type: Tanker. MMSI: 538003113.

Date/timePositionNaut miles runAvg speedWind from/ knotsBaromVisibWave heightAir tempDewpointWater temp
2018-Jul-20 23:31N 43°44' E 013°49'812.6
2018-Jul-20 22:53N 43°41' E 013°59'513.2
2018-Jul-20 22:28N 43°37' E 014°04'713.5
2018-Jul-20 21:56N 43°33' E 014°12'613.1
2018-Jul-20 21:31N 43°31' E 014°20'713.3
2018-Jul-20 20:58N 43°29' E 014°29'443 9.7
2018-Jul-18 23:28N 36°07' E 015°03'613.1
2018-Jul-18 22:58N 36°04' E 014°56'713.0
2018-Jul-18 22:24N 36°00' E 014°48'612.3
2018-Jul-18 21:54N 35°54' E 014°47'1 1.8
2018-Jul-18 21:28N 35°53' E 014°46'0 0.0
2018-Jul-18 20:26N 35°53' E 014°46'0 0.0
2018-Jul-18 17:25N 35°53' E 014°47'0 0.0
2018-Jul-18 16:52N 35°53' E 014°47'0 0.0
2018-Jul-18 16:28N 35°53' E 014°47'0 0.0
2018-Jul-18 15:59N 35°53' E 014°47'0 0.0
2018-Jul-18 15:29N 35°53' E 014°47'0 0.0
2018-Jul-18 14:59N 35°53' E 014°47'0 0.0
2018-Jul-18 14:30N 35°53' E 014°47'0 0.0
2018-Jul-18 13:30N 35°53' E 014°47'0 0.0
2018-Jul-18 12:58N 35°53' E 014°47'0 0.2
2018-Jul-18 12:28N 35°54' E 014°47'1 2.7
2018-Jul-18 12:00N 35°53' E 014°48'2 3.8
2018-Jul-18 11:28N 35°51' E 014°48'10 9.8
2018-Jul-18 10:28N 35°49' E 014°36'0 0.2
2018-Jul-18 09:58N 35°49' E 014°36'0 0.0
2018-Jul-18 09:29N 35°49' E 014°36'0 0.0
2018-Jul-18 08:59N 35°49' E 014°36'0 0.0
2018-Jul-18 04:23N 35°49' E 014°36'0 0.0
2018-Jul-18 00:46N 35°49' E 014°36'0 0.0
2018-Jul-18 00:23N 35°49' E 014°36'0 0.0
2018-Jul-17 23:59N 35°49' E 014°36'0 0.0
2018-Jul-17 23:29N 35°49' E 014°36'0 0.0
2018-Jul-17 23:00N 35°49' E 014°36'0 0.0
2018-Jul-17 22:18N 35°49' E 014°36'0 0.0
2018-Jul-17 21:57N 35°49' E 014°36'3 0.2
2018-Jul-17 08:45N 35°49' E 014°33'0 0.0
2018-Jul-17 07:46N 35°49' E 014°33'0 0.0
2018-Jul-17 06:50N 35°49' E 014°33'0 0.0
2018-Jul-17 06:23N 35°49' E 014°33'0 0.0
2018-Jul-17 05:56N 35°49' E 014°33'0 0.0
2018-Jul-17 05:30N 35°49' E 014°33'0 0.0
2018-Jul-17 05:00N 35°49' E 014°33'0 0.0
2018-Jul-17 04:30N 35°49' E 014°33'0 0.0
2018-Jul-17 00:09N 35°49' E 014°33'0 0.0
2018-Jul-16 23:25N 35°49' E 014°33'0 0.0
2018-Jul-16 21:56N 35°49' E 014°33'0 0.0
2018-Jul-16 13:19N 35°49' E 014°33'0 0.0
2018-Jul-16 12:58N 35°49' E 014°33'0 0.0
2018-Jul-16 12:23N 35°49' E 014°33'0 0.0
2018-Jul-16 09:34N 35°49' E 014°33'0 0.0
2018-Jul-16 09:28N 35°49' E 014°33'0 0.0
2018-Jul-16 08:58N 35°49' E 014°33'  

Dump ship's entire track history